Time;durP1;ratioP1;P1;durP2;ratioP2;P2;SDS_P1;SDS_P2;PMS_P1;PMS_P2;Temp;Humidity;BMP_temperature;BMP_pressure;BME280_temperature;BME280_humidity;BME280_pressure;Samples;Min_cycle;Max_cycle;Signal;HPM_P1;HPM_P2
2021/11/03 00:00:48;;;;;;;12.48;4.78;;;;;;;-149.78;100.00;50547.72;5030311;28;20037;-66
2021/11/03 00:03:14;;;;;;;9.48;4.32;;;;;;;-149.78;100.00;50555.53;5029480;28;20057;-67
2021/11/03 00:05:46;;;;;;;10.73;4.88;;;;;;;-149.78;100.00;50577.06;5033283;28;20026;-67
2021/11/03 00:08:22;;;;;;;9.35;4.32;;;;;;;-149.78;100.00;50512.50;5017619;28;20026;-66
2021/11/03 00:10:50;;;;;;;7.82;3.95;;;;;;;-149.78;100.00;50549.69;5026721;28;20535;-67
2021/11/03 00:13:17;;;;;;;9.85;4.43;;;;;;;-149.78;100.00;50588.78;5036208;28;20049;-67
2021/11/03 00:15:43;;;;;;;12.65;4.78;;;;;;;-149.78;100.00;50553.59;5031990;28;20030;-67
2021/11/03 00:18:09;;;;;;;8.45;4.40;;;;;;;-149.78;100.00;50559.47;5028911;28;20041;-67
2021/11/03 00:20:36;;;;;;;10.85;4.30;;;;;;;-149.78;100.00;50557.50;5025014;28;20033;-67
2021/11/03 00:23:03;;;;;;;10.00;4.40;;;;;;;-149.78;100.00;50600.53;5044100;28;20042;-67
2021/11/03 00:25:29;;;;;;;7.82;3.85;;;;;;;-149.78;100.00;50553.59;5026792;28;20060;-67
2021/11/03 00:27:55;;;;;;;7.07;3.53;;;;;;;-149.78;100.00;50530.13;5030085;28;20041;-67
2021/11/03 00:30:21;;;;;;;8.10;3.90;;;;;;;-149.78;100.00;50534.03;5025539;28;20042;-67
2021/11/03 00:32:48;;;;;;;7.05;3.33;;;;;;;-149.78;100.00;50557.50;5031452;28;20029;-67
2021/11/03 00:35:15;;;;;;;7.93;3.80;;;;;;;-149.78;100.00;50526.22;5039220;28;20029;-66
2021/11/03 00:37:40;;;;;;;9.63;3.03;;;;;;;-149.78;100.00;50616.19;5023395;28;20033;-66
2021/11/03 00:40:08;;;;;;;5.13;2.72;;;;;;;-149.78;100.00;50573.16;5028271;28;20033;-67
2021/11/03 00:42:34;;;;;;;6.68;3.28;;;;;;;-149.78;100.00;50545.75;5037277;28;20030;-67
2021/11/03 00:45:00;;;;;;;8.88;3.00;;;;;;;-149.78;100.00;50563.38;5044105;28;20500;-67
2021/11/03 00:47:26;;;;;;;8.52;2.83;;;;;;;-149.78;100.00;50541.84;5032004;28;20049;-67
2021/11/03 00:49:52;;;;;;;4.22;2.50;;;;;;;-149.78;100.00;50563.38;5011995;28;20030;-66
2021/11/03 00:52:18;;;;;;;8.45;3.10;;;;;;;-149.78;100.00;50545.75;5023257;28;20032;-67
2021/11/03 00:54:44;;;;;;;6.75;2.78;;;;;;;-149.78;100.00;50561.41;5030952;28;20120;-67
2021/11/03 00:57:10;;;;;;;7.53;2.58;;;;;;;-149.78;100.00;50569.22;5041217;28;20029;-67
2021/11/03 00:59:35;;;;;;;6.75;2.53;;;;;;;-149.78;100.00;50592.72;5048643;28;20044;-67
2021/11/03 01:02:02;;;;;;;6.40;2.72;;;;;;;-149.78;100.00;50553.59;5022266;28;20037;-67
2021/11/03 01:04:28;;;;;;;8.48;2.90;;;;;;;-149.78;100.00;50553.59;5027479;28;20029;-67
2021/11/03 01:06:53;;;;;;;5.63;2.72;;;;;;;-149.78;100.00;50526.22;5037830;28;20029;-66
2021/11/03 01:09:19;;;;;;;5.32;2.67;;;;;;;-149.78;100.00;50549.69;5023826;28;20137;-67
2021/11/03 01:11:44;;;;;;;5.40;2.75;;;;;;;-149.78;100.00;50553.59;5032227;28;20134;-67
2021/11/03 01:14:11;;;;;;;5.28;2.75;;;;;;;-149.78;100.00;50545.75;5027131;28;20160;-67
2021/11/03 01:16:38;;;;;;;9.65;3.90;;;;;;;-149.78;100.00;50563.38;5017233;28;20386;-67
2021/11/03 01:19:05;;;;;;;5.65;2.85;;;;;;;-149.78;100.00;50580.97;5038444;28;20091;-67
2021/11/03 01:21:31;;;;;;;5.35;2.72;;;;;;;-149.78;100.00;50608.34;5051342;28;20032;-66
2021/11/03 01:23:58;;;;;;;7.38;2.40;;;;;;;-149.78;100.00;50584.88;5041098;28;20046;-67
2021/11/03 01:26:24;;;;;;;5.60;2.90;;;;;;;-149.78;100.00;50526.22;5033809;28;20030;-67
2021/11/03 01:28:49;;;;;;;7.25;2.67;;;;;;;-149.78;100.00;50588.78;5033425;28;20029;-67
2021/11/03 01:31:15;;;;;;;7.25;2.90;;;;;;;-149.78;100.00;50580.97;5024639;28;20381;-67
2021/11/03 01:33:42;;;;;;;7.22;2.58;;;;;;;-149.78;100.00;50571.19;5034203;28;20366;-67
2021/11/03 01:36:08;;;;;;;3.97;2.22;;;;;;;-149.78;100.00;50561.41;5032074;28;20045;-67
2021/11/03 01:38:34;;;;;;;6.63;2.72;;;;;;;-149.78;100.00;50565.31;5029108;28;20069;-67
2021/11/03 01:41:00;;;;;;;7.45;2.50;;;;;;;-149.78;100.00;50545.75;5033272;28;20048;-67
2021/11/03 01:43:43;;;;;;;6.32;2.65;;;;;;;-149.78;100.00;50596.63;5021752;28;20030;-67
2021/11/03 01:46:16;;;;;;;;;;;;;;;-149.78;100.00;50541.84;5046565;28;20033;-67
2021/11/03 01:48:42;;;;;;;4.18;2.00;;;;;;;-149.78;100.00;50588.78;5052621;28;19913;-67
2021/11/03 01:51:13;;;;;;;8.68;3.10;;;;;;;-149.78;100.00;50565.31;5037424;28;20037;-67
2021/11/03 01:53:39;;;;;;;5.63;2.75;;;;;;;-149.78;100.00;50571.19;5029681;28;20021;-67
2021/11/03 01:56:08;;;;;;;4.70;2.42;;;;;;;-149.78;100.00;50522.28;5026902;28;20551;-67
2021/11/03 01:58:41;;;;;;;5.47;2.20;;;;;;;-149.78;100.00;50547.72;5039541;28;20026;-67
2021/11/03 02:01:08;;;;;;;5.22;2.50;;;;;;;-149.78;100.00;50543.81;5016502;28;20095;-67
2021/11/03 02:03:34;;;;;;;7.43;2.65;;;;;;;-149.78;100.00;50545.75;5028616;28;20030;-67
2021/11/03 02:06:06;;;;;;;8.32;2.55;;;;;;;-149.78;100.00;50541.84;5032415;28;20048;-67
2021/11/03 02:08:34;;;;;;;5.50;2.42;;;;;;;-149.78;100.00;50541.84;5035668;28;20133;-67
2021/11/03 02:11:01;;;;;;;7.47;2.80;;;;;;;-149.78;100.00;50557.50;5027727;28;20472;-67
2021/11/03 02:13:29;;;;;;;5.07;2.33;;;;;;;-149.78;100.00;50526.22;5034277;28;20021;-67
2021/11/03 02:15:55;;;;;;;7.50;2.75;;;;;;;-149.78;100.00;50541.84;5034841;28;20211;-67
2021/11/03 02:18:21;;;;;;;4.10;2.22;;;;;;;-149.78;100.00;50522.28;5018020;28;20485;-67
2021/11/03 02:20:51;;;;;;;5.25;2.80;;;;;;;-149.78;100.00;50520.34;5027933;28;20061;-67
2021/11/03 02:23:36;;;;;;;7.07;2.80;;;;;;;-149.78;100.00;50528.16;5020870;28;20037;-67
2021/11/03 02:26:09;;;;;;;5.82;2.55;;;;;;;-149.78;100.00;50518.38;5024493;28;20034;-67
2021/11/03 02:28:36;;;;;;;6.35;2.70;;;;;;;-149.78;100.00;50551.63;5022562;28;20061;-67
2021/11/03 02:31:02;;;;;;;8.80;3.13;;;;;;;-149.78;100.00;50539.91;5033210;28;20073;-67
2021/11/03 02:33:28;;;;;;;8.73;3.60;;;;;;;-149.78;100.00;50537.94;5034292;28;20030;-67
2021/11/03 02:36:01;;;;;;;5.60;2.83;;;;;;;-149.78;100.00;50559.47;5030935;28;20050;-67
2021/11/03 02:38:32;;;;;;;;;;;;;;;-149.78;100.00;50526.22;5033827;28;20033;-67
2021/11/03 02:41:04;;;;;;;6.07;2.88;;;;;;;-149.78;100.00;50557.50;5020383;28;20288;-67
2021/11/03 02:43:42;;;;;;;5.55;2.58;;;;;;;-149.78;100.00;50522.28;5033747;28;20391;-67
2021/11/03 02:46:09;;;;;;;4.13;2.25;;;;;;;-149.78;100.00;50553.59;5030420;28;20029;-67
2021/11/03 02:48:37;;;;;;;6.72;2.50;;;;;;;-149.78;100.00;50487.09;5026917;28;20121;-67
2021/11/03 02:51:19;;;;;;;8.18;2.83;;;;;;;-149.78;100.00;50565.31;5014230;28;20039;-67
2021/11/03 02:53:52;;;;;;;7.93;2.60;;;;;;;-149.78;100.00;50506.66;5014821;28;20030;-67
2021/11/03 02:56:23;;;;;;;6.68;2.65;;;;;;;-149.78;100.00;50584.88;5016515;28;20033;-67
2021/11/03 02:58:49;;;;;;;9.27;2.97;;;;;;;-149.78;100.00;50561.41;5051923;28;20353;-67
2021/11/03 03:01:32;;;;;;;3.85;2.15;;;;;;;-149.78;100.00;50541.84;5034754;28;20038;-67
2021/11/03 03:03:59;;;;;;;4.60;2.47;;;;;;;-149.78;100.00;50524.25;5024081;28;20037;-67
2021/11/03 03:06:28;;;;;;;8.55;2.95;;;;;;;-149.78;100.00;50530.13;5028214;28;20034;-67
2021/11/03 03:08:56;;;;;;;6.82;2.67;;;;;;;-149.78;100.00;50522.28;5022595;28;20080;-67
2021/11/03 03:11:24;;;;;;;4.97;2.60;;;;;;;-149.78;100.00;50543.81;5038227;28;20033;-67
2021/11/03 03:13:50;;;;;;;5.60;2.30;;;;;;;-149.78;100.00;50530.13;5031301;28;20053;-67
2021/11/03 03:16:19;;;;;;;4.90;2.47;;;;;;;-149.78;100.00;50530.13;5023807;28;20434;-67
2021/11/03 03:18:45;;;;;;;6.00;3.00;;;;;;;-149.78;100.00;50498.81;5020454;28;20489;-67
2021/11/03 03:21:12;;;;;;;5.90;2.67;;;;;;;-149.78;100.00;50522.28;5026786;28;20048;-67
2021/11/03 03:23:38;;;;;;;5.93;2.83;;;;;;;-149.78;100.00;50534.03;5033004;28;20420;-67
2021/11/03 03:26:05;;;;;;;5.82;2.30;;;;;;;-149.78;100.00;50549.69;5034663;28;20114;-67
2021/11/03 03:28:31;;;;;;;7.38;3.17;;;;;;;-149.78;100.00;50545.75;5028176;28;20026;-67
2021/11/03 03:30:57;;;;;;;5.53;2.50;;;;;;;-149.78;100.00;50530.13;5029784;28;20050;-67
2021/11/03 03:33:23;;;;;;;6.18;2.83;;;;;;;-149.78;100.00;50541.84;5027247;28;20466;-67
2021/11/03 03:35:49;;;;;;;6.10;2.70;;;;;;;-149.78;100.00;50524.25;5025981;28;20116;-67
2021/11/03 03:38:15;;;;;;;8.52;2.92;;;;;;;-149.78;100.00;50514.47;5036052;28;20444;-67
2021/11/03 03:40:41;;;;;;;6.38;3.53;;;;;;;-149.78;100.00;50506.66;5033630;28;20112;-67
2021/11/03 03:43:07;;;;;;;6.78;3.33;;;;;;;-149.78;100.00;50549.69;5019285;28;20034;-67
2021/11/03 03:45:32;;;;;;;5.63;2.92;;;;;;;-149.78;100.00;50541.84;5031104;28;20063;-67
2021/11/03 03:47:58;;;;;;;10.00;4.18;;;;;;;-149.78;100.00;50530.13;5025825;28;20052;-67
2021/11/03 03:50:24;;;;;;;8.85;3.58;;;;;;;-149.78;100.00;50530.13;5040027;28;20477;-67
2021/11/03 03:52:49;;;;;;;8.05;3.08;;;;;;;-149.78;100.00;50541.84;5023987;28;20056;-67
2021/11/03 03:55:15;;;;;;;9.98;3.75;;;;;;;-149.78;100.00;50555.53;5021512;28;20046;-67
2021/11/03 03:57:41;;;;;;;10.25;3.70;;;;;;;-149.78;100.00;50541.84;5018093;28;20486;-68
2021/11/03 04:00:12;;;;;;;8.18;3.85;;;;;;;-149.78;100.00;50553.59;5033625;28;20389;-67
2021/11/03 04:02:38;;;;;;;10.82;3.80;;;;;;;-149.78;100.00;50522.28;5028251;28;20029;-67
2021/11/03 04:05:06;;;;;;;8.98;3.58;;;;;;;-149.78;100.00;50522.28;5024176;28;20095;-67
2021/11/03 04:07:32;;;;;;;7.57;3.90;;;;;;;-149.78;100.00;50541.84;5035764;28;20032;-67
2021/11/03 04:09:58;;;;;;;7.97;3.30;;;;;;;-149.78;100.00;50518.38;5028019;28;20160;-67
2021/11/03 04:12:23;;;;;;;6.47;3.10;;;;;;;-149.78;100.00;50494.91;5021793;28;20045;-67
2021/11/03 04:14:49;;;;;;;5.53;3.05;;;;;;;-149.78;100.00;50549.69;5027550;28;20125;-67
2021/11/03 04:17:15;;;;;;;8.38;3.55;;;;;;;-149.78;100.00;50526.22;5028601;28;20048;-67
2021/11/03 04:19:40;;;;;;;7.72;3.47;;;;;;;-149.78;100.00;50502.75;5029662;28;20033;-68
2021/11/03 04:22:07;;;;;;;5.85;2.97;;;;;;;-149.78;100.00;50534.03;5032621;28;20044;-67
2021/11/03 04:24:33;;;;;;;7.95;3.50;;;;;;;-149.78;100.00;50522.28;5041882;28;20396;-67
2021/11/03 04:26:59;;;;;;;5.95;3.10;;;;;;;-149.78;100.00;50510.56;5030592;28;20041;-68
2021/11/03 04:29:25;;;;;;;8.23;3.40;;;;;;;-149.78;100.00;50506.66;5028433;28;20699;-67
2021/11/03 04:31:51;;;;;;;6.80;3.00;;;;;;;-149.78;100.00;50555.53;5026603;28;20115;-67
2021/11/03 04:34:17;;;;;;;7.05;3.00;;;;;;;-149.78;100.00;50518.38;5034370;28;20041;-67
2021/11/03 04:36:44;;;;;;;6.32;3.03;;;;;;;-149.78;100.00;50565.31;5020859;28;20026;-67
2021/11/03 04:39:10;;;;;;;6.38;2.95;;;;;;;-149.78;100.00;50530.13;5029356;28;20029;-67
2021/11/03 04:41:37;;;;;;;5.45;2.50;;;;;;;-149.78;100.00;50510.56;5032613;28;20041;-67
2021/11/03 04:44:04;;;;;;;6.65;3.08;;;;;;;-149.78;100.00;50522.28;5031844;28;20495;-67
2021/11/03 04:46:31;;;;;;;6.90;3.03;;;;;;;-149.78;100.00;50518.38;5031192;28;20423;-67
2021/11/03 04:48:57;;;;;;;6.95;3.10;;;;;;;-149.78;100.00;50539.91;5022612;28;20398;-67
2021/11/03 04:51:23;;;;;;;8.50;3.00;;;;;;;-149.78;100.00;50541.84;5022401;28;20536;-68
2021/11/03 04:53:50;;;;;;;4.25;2.35;;;;;;;-149.78;100.00;50494.91;5032347;28;20405;-67
2021/11/03 04:56:19;;;;;;;6.40;2.28;;;;;;;-149.78;100.00;50535.97;5034563;28;20499;-67
2021/11/03 04:58:47;;;;;;;5.47;2.50;;;;;;;-149.78;100.00;50545.75;5030009;28;20095;-67
2021/11/03 05:01:12;;;;;;;4.85;2.83;;;;;;;-149.78;100.00;50502.75;5022728;28;20060;-67
2021/11/03 05:03:38;;;;;;;5.78;2.65;;;;;;;-149.78;100.00;50545.75;5026392;28;20473;-67
2021/11/03 05:06:05;;;;;;;5.75;2.70;;;;;;;-149.78;100.00;50555.53;5023171;28;20033;-67
2021/11/03 05:08:31;;;;;;;6.80;2.88;;;;;;;-149.78;100.00;50530.13;5038173;28;20053;-67
2021/11/03 05:10:56;;;;;;;4.47;2.80;;;;;;;-149.78;100.00;50514.47;5037959;28;20068;-67
2021/11/03 05:13:23;;;;;;;4.82;2.78;;;;;;;-149.78;100.00;50506.66;5025998;28;20121;-67
2021/11/03 05:15:50;;;;;;;14.75;2.85;;;;;;;-149.78;100.00;50545.75;5030287;28;20037;-68
2021/11/03 05:18:16;;;;;;;6.60;3.05;;;;;;;-149.78;100.00;50514.47;5024910;28;20033;-68
2021/11/03 05:20:43;;;;;;;7.72;2.88;;;;;;;-149.78;100.00;50518.38;5028673;28;20053;-67
2021/11/03 05:23:08;;;;;;;6.05;2.65;;;;;;;-149.78;100.00;50504.69;5018835;28;20034;-67
2021/11/03 05:25:34;;;;;;;12.55;5.32;;;;;;;-149.78;100.00;50510.56;5019454;28;20050;-67
2021/11/03 05:27:59;;;;;;;5.60;3.00;;;;;;;-149.78;100.00;50510.56;5017243;28;20049;-68
2021/11/03 05:30:27;;;;;;;8.75;3.22;;;;;;;-149.78;100.00;50518.38;5034351;28;20061;-68
2021/11/03 05:32:53;;;;;;;5.97;3.50;;;;;;;-149.78;100.00;50491.00;5021423;28;20017;-67
2021/11/03 05:35:19;;;;;;;5.88;3.38;;;;;;;-149.78;100.00;50510.56;5035413;28;20097;-68
2021/11/03 05:37:46;;;;;;;8.70;3.88;;;;;;;-149.78;100.00;50520.34;5038495;28;20041;-68
2021/11/03 05:40:15;;;;;;;8.90;3.85;;;;;;;-149.78;100.00;50518.38;5037976;28;20032;-68
2021/11/03 05:42:41;;;;;;;9.60;3.78;;;;;;;-149.78;100.00;50545.75;5030732;28;20036;-68
2021/11/03 05:45:07;;;;;;;11.20;4.88;;;;;;;-149.78;100.00;50518.38;5025541;28;20053;-68
2021/11/03 05:47:33;;;;;;;10.15;3.88;;;;;;;-149.78;100.00;50487.09;5017061;28;20125;-68
2021/11/03 05:49:59;;;;;;;8.98;4.05;;;;;;;-149.78;100.00;50532.06;5024269;28;20025;-68
2021/11/03 05:52:26;;;;;;;9.45;4.32;;;;;;;-149.78;100.00;50489.03;5029357;28;20117;-68
2021/11/03 05:54:52;;;;;;;7.43;3.72;;;;;;;-149.78;100.00;50522.28;5031305;28;20346;-68
2021/11/03 05:57:32;;;;;;;10.23;4.40;;;;;;;-149.78;100.00;50510.56;5027436;28;20091;-68
2021/11/03 05:59:59;;;;;;;8.77;3.78;;;;;;;-149.78;100.00;50532.06;5026527;28;20061;-68
2021/11/03 06:02:25;;;;;;;11.38;3.83;;;;;;;-149.78;100.00;50534.03;5014865;28;20053;-68
2021/11/03 06:04:51;;;;;;;9.48;3.58;;;;;;;-149.78;100.00;50514.47;5021728;28;20041;-68
2021/11/03 06:07:21;;;;;;;10.50;3.90;;;;;;;-149.78;100.00;50506.66;5029608;28;20033;-68
2021/11/03 06:09:46;;;;;;;7.13;3.53;;;;;;;-149.78;100.00;50508.59;5036088;28;20117;-68
2021/11/03 06:12:12;;;;;;;10.60;3.53;;;;;;;-149.78;100.00;50535.97;5025569;28;20456;-68
2021/11/03 06:14:38;;;;;;;5.70;3.25;;;;;;;-149.78;100.00;50553.59;5033029;28;20104;-68
2021/11/03 06:17:04;;;;;;;9.57;3.63;;;;;;;-149.78;100.00;50518.38;5032297;28;20029;-68
2021/11/03 06:19:30;;;;;;;8.70;3.30;;;;;;;-149.78;100.00;50522.28;5032249;28;20045;-69
2021/11/03 06:21:55;;;;;;;6.78;3.22;;;;;;;-149.78;100.00;50561.41;5029301;28;20045;-68
2021/11/03 06:24:22;;;;;;;8.38;3.50;;;;;;;-149.78;100.00;50526.22;5032915;28;20503;-69
2021/11/03 06:26:47;;;;;;;8.38;3.08;;;;;;;-149.78;100.00;50510.56;5037945;28;20037;-68
2021/11/03 06:29:13;;;;;;;6.95;3.13;;;;;;;-149.78;100.00;50508.59;5025572;28;20108;-68
2021/11/03 06:31:39;;;;;;;9.38;3.17;;;;;;;-149.78;100.00;50494.91;5028284;28;20470;-69
2021/11/03 06:34:06;;;;;;;8.15;3.75;;;;;;;-149.78;100.00;50526.22;5019022;28;20080;-68
2021/11/03 06:36:32;;;;;;;10.52;3.40;;;;;;;-149.78;100.00;50551.63;5017958;28;20500;-68
2021/11/03 06:38:58;;;;;;;6.15;3.25;;;;;;;-149.78;100.00;50506.66;5033109;28;20048;-67
2021/11/03 06:41:25;;;;;;;6.65;3.20;;;;;;;-149.78;100.00;50539.91;5030032;28;20094;-67
2021/11/03 06:43:52;;;;;;;7.45;3.47;;;;;;;-149.78;100.00;50518.38;5032092;28;20033;-68
2021/11/03 06:46:19;;;;;;;7.57;3.90;;;;;;;-149.78;100.00;50537.94;5031896;28;20029;-68
2021/11/03 06:48:45;;;;;;;5.72;3.10;;;;;;;-149.78;100.00;50504.69;5030014;28;20116;-68
2021/11/03 06:51:10;;;;;;;6.75;3.38;;;;;;;-149.78;100.00;50522.28;5031090;28;20376;-67
2021/11/03 06:53:37;;;;;;;9.38;3.78;;;;;;;-149.78;100.00;50522.28;5031347;28;20516;-68
2021/11/03 06:56:04;;;;;;;6.53;3.63;;;;;;;-149.78;100.00;50545.75;5030438;28;20057;-68
2021/11/03 06:58:30;;;;;;;6.07;3.40;;;;;;;-149.78;100.00;50549.69;5031077;28;20045;-68
2021/11/03 07:00:57;;;;;;;8.10;2.97;;;;;;;-149.78;100.00;50534.03;5025635;28;20029;-67
2021/11/03 07:03:28;;;;;;;7.68;3.15;;;;;;;-149.78;100.00;50518.38;5024751;28;20045;-67
2021/11/03 07:05:55;;;;;;;7.82;3.58;;;;;;;-149.78;100.00;50512.50;5034529;28;20056;-68
2021/11/03 07:08:22;;;;;;;8.73;3.63;;;;;;;-149.78;100.00;50559.47;5032010;28;20033;-67
2021/11/03 07:10:51;;;;;;;5.78;3.15;;;;;;;-149.78;100.00;50524.25;5024582;28;20026;-67
2021/11/03 07:13:17;;;;;;;6.30;3.33;;;;;;;-149.78;100.00;50514.47;5025500;28;20463;-67
2021/11/03 07:15:44;;;;;;;5.75;3.35;;;;;;;-149.78;100.00;50518.38;5031444;28;20047;-67
2021/11/03 07:18:10;;;;;;;8.07;3.35;;;;;;;-149.78;100.00;50522.28;5031810;28;20041;-67
2021/11/03 07:20:37;;;;;;;6.15;3.13;;;;;;;-149.78;100.00;50549.69;5017261;28;20033;-68
2021/11/03 07:23:03;;;;;;;5.97;2.60;;;;;;;-149.78;100.00;50522.28;5037262;28;20037;-69
2021/11/03 07:25:29;;;;;;;5.22;2.80;;;;;;;-149.78;100.00;50530.13;5040994;28;20045;-67
2021/11/03 07:27:56;;;;;;;6.57;2.60;;;;;;;-149.78;100.00;50512.50;5027675;28;20029;-68
2021/11/03 07:30:26;;;;;;;6.32;2.60;;;;;;;-149.78;100.00;50500.78;5033594;28;20484;-68
2021/11/03 07:32:52;;;;;;;5.38;2.38;;;;;;;-149.78;100.00;50543.81;5030512;28;20033;-68
2021/11/03 07:35:18;;;;;;;5.10;2.33;;;;;;;-149.78;100.00;50494.91;5029572;28;20036;-68
2021/11/03 07:37:44;;;;;;;10.63;3.20;;;;;;;-149.78;100.00;50557.50;5031435;28;20042;-68
2021/11/03 07:40:14;;;;;;;7.18;3.55;;;;;;;-149.78;100.00;50530.13;5030909;28;20051;-68
2021/11/03 07:42:39;;;;;;;5.40;2.83;;;;;;;-149.78;100.00;50530.13;5032045;28;20506;-62
2021/11/03 07:45:06;;;;;;;7.03;2.80;;;;;;;-149.78;100.00;50518.38;5029156;28;20037;-62
2021/11/03 07:47:32;;;;;;;5.93;2.97;;;;;;;-149.78;100.00;50530.13;5029623;28;20550;-62
2021/11/03 07:49:58;;;;;;;7.20;3.58;;;;;;;-149.78;100.00;50518.38;5029311;28;20033;-61
2021/11/03 07:52:24;;;;;;;5.68;2.58;;;;;;;-149.78;100.00;50498.81;5033886;28;20022;-62
2021/11/03 07:54:50;;;;;;;5.32;2.90;;;;;;;-149.78;100.00;50526.22;5032491;28;20396;-62
2021/11/03 07:57:16;;;;;;;8.38;2.92;;;;;;;-149.78;100.00;50510.56;5029216;28;20053;-61
2021/11/03 07:59:42;;;;;;;7.85;3.10;;;;;;;-149.78;100.00;50506.66;5032424;28;20057;-63
2021/11/03 08:02:08;;;;;;;5.88;2.80;;;;;;;-149.78;100.00;50508.59;5034177;28;20029;-63
2021/11/03 08:04:52;;;;;;;6.70;2.42;;;;;;;-149.78;100.00;50512.50;5025499;28;20134;-63
2021/11/03 08:07:18;;;;;;;4.43;2.42;;;;;;;-149.78;100.00;50483.19;5030631;28;20049;-63
2021/11/03 08:09:46;;;;;;;7.03;2.78;;;;;;;-149.78;100.00;50534.03;5032768;28;20028;-63
2021/11/03 08:12:12;;;;;;;4.05;2.45;;;;;;;-149.78;100.00;50498.81;5020331;28;20167;-63
2021/11/03 08:14:37;;;;;;;5.60;2.60;;;;;;;-149.78;100.00;50522.28;5021667;28;20116;-62
2021/11/03 08:17:09;;;;;;;8.07;2.58;;;;;;;-149.78;100.00;50530.13;5029524;28;20029;-62
2021/11/03 08:19:39;;;;;;;4.60;2.50;;;;;;;-149.78;100.00;50506.66;5028761;28;20523;-62
2021/11/03 08:22:06;;;;;;;6.15;2.53;;;;;;;-149.78;100.00;50491.00;5031969;28;20029;-62
2021/11/03 08:24:32;;;;;;;6.07;2.60;;;;;;;-149.78;100.00;50522.28;5030281;28;20034;-62
2021/11/03 08:26:57;;;;;;;4.72;2.42;;;;;;;-149.78;100.00;50547.72;5031624;28;20032;-62
2021/11/03 08:29:24;;;;;;;5.53;2.55;;;;;;;-149.78;100.00;50492.97;5031122;28;20092;-66
2021/11/03 08:31:55;;;;;;;4.07;2.15;;;;;;;-149.78;100.00;50520.34;5031860;28;20065;-66
2021/11/03 08:34:26;;;;;;;3.88;2.53;;;;;;;-149.78;100.00;50498.81;5027806;28;20034;-67
2021/11/03 08:36:53;;;;;;;6.00;2.60;;;;;;;-149.78;100.00;50565.31;5028503;28;20036;-66
2021/11/03 08:39:19;;;;;;;7.40;2.53;;;;;;;-149.78;100.00;50522.28;5028072;28;20037;-65
2021/11/03 08:41:45;;;;;;;5.47;2.35;;;;;;;-149.78;100.00;50475.34;5030821;28;20048;-65
2021/11/03 08:44:11;;;;;;;4.55;2.53;;;;;;;-149.78;100.00;50526.22;5026478;28;20038;-62
2021/11/03 08:46:38;;;;;;;4.60;2.08;;;;;;;-149.78;100.00;50537.94;5031228;28;20033;-62
2021/11/03 08:49:03;;;;;;;6.05;2.60;;;;;;;-149.78;100.00;50522.28;5028033;28;20064;-62
2021/11/03 08:51:33;;;;;;;5.90;2.67;;;;;;;-149.78;100.00;50528.16;5027176;28;20038;-62
2021/11/03 08:54:01;;;;;;;4.20;2.42;;;;;;;-149.78;100.00;50530.13;5025676;28;20036;-62
2021/11/03 08:56:27;;;;;;;4.97;2.25;;;;;;;-149.78;100.00;50522.28;5034181;28;20059;-62
2021/11/03 08:58:55;;;;;;;8.85;2.80;;;;;;;-149.78;100.00;50545.75;5020718;28;20038;-64
2021/11/03 09:01:22;;;;;;;4.35;2.10;;;;;;;-149.78;100.00;50494.91;5030556;28;20535;-65
2021/11/03 09:03:50;;;;;;;2.90;2.05;;;;;;;-149.78;100.00;50518.38;5031566;28;20034;-64
2021/11/03 09:06:16;;;;;;;5.50;2.22;;;;;;;-149.78;100.00;50492.97;5028617;28;20029;-64
2021/11/03 09:08:47;;;;;;;2.58;1.80;;;;;;;-149.78;100.00;50518.38;5031957;28;20027;-63
2021/11/03 09:11:13;;;;;;;3.58;1.90;;;;;;;-149.78;100.00;50498.81;5030093;28;20109;-63
2021/11/03 09:13:38;;;;;;;6.97;1.80;;;;;;;-149.78;100.00;50483.19;5024091;28;20033;-63
2021/11/03 09:16:04;;;;;;;3.75;2.25;;;;;;;-149.78;100.00;50514.47;5028365;28;20037;-63
2021/11/03 09:18:30;;;;;;;2.95;1.92;;;;;;;-149.78;100.00;50506.66;5030580;28;20468;-63
2021/11/03 09:20:56;;;;;;;6.07;2.03;;;;;;;-149.78;100.00;50526.22;5032815;28;20079;-63
2021/11/03 09:23:23;;;;;;;3.40;1.80;;;;;;;-149.78;100.00;50530.13;5042728;28;20060;-63
2021/11/03 09:25:51;;;;;;;4.18;1.67;;;;;;;-149.78;100.00;50528.16;5035890;28;20045;-63
2021/11/03 09:28:18;;;;;;;2.38;1.77;;;;;;;-149.78;100.00;50526.22;5020058;28;20026;-63
2021/11/03 09:30:44;;;;;;;2.90;1.50;;;;;;;-149.78;100.00;50475.34;5031057;28;20503;-63
2021/11/03 09:33:12;;;;;;;3.92;1.65;;;;;;;-149.78;100.00;50530.13;5032786;28;20041;-64
2021/11/03 09:35:49;;;;;;;3.75;1.80;;;;;;;-149.78;100.00;50514.47;5030315;28;20030;-63
2021/11/03 09:38:19;;;;;;;3.63;1.48;;;;;;;-149.78;100.00;50510.56;5027460;28;20056;-67
2021/11/03 09:40:59;;;;;;;1.95;1.33;;;;;;;-149.78;100.00;50500.78;5023700;28;20083;-67
2021/11/03 09:43:36;;;;;;;3.05;1.48;;;;;;;-149.78;100.00;50498.81;5040152;28;20473;-66
2021/11/03 09:46:15;;;;;;;2.25;1.48;;;;;;;-149.78;100.00;50526.22;5033221;28;20030;-67
2021/11/03 09:48:41;;;;;;;4.50;1.80;;;;;;;-149.78;100.00;50534.03;5032447;28;20029;-66
2021/11/03 09:51:28;;;;;;;6.07;1.55;;;;;;;-149.78;100.00;50491.00;5035615;28;20051;-66
2021/11/03 09:53:57;;;;;;;1.45;1.30;;;;;;;-149.78;100.00;50518.38;5032994;28;20425;-66
2021/11/03 09:56:43;;;;;;;5.47;1.80;;;;;;;-149.78;100.00;50526.22;5035521;28;20029;-66
2021/11/03 09:59:18;;;;;;;4.78;1.83;;;;;;;-149.78;100.00;50485.13;5032302;28;20041;-66
2021/11/03 10:01:56;;;;;;;4.35;1.70;;;;;;;-149.78;100.00;50522.28;5031876;28;20408;-67
2021/11/03 10:04:56;;;;;;;3.72;1.88;;;;;;;-149.78;100.00;50477.31;5029764;28;20435;-66
2021/11/03 10:07:24;;;;;;;3.63;1.60;;;;;;;-149.78;100.00;50528.16;5037169;28;20052;-67
2021/11/03 10:09:50;;;;;;;5.30;1.80;;;;;;;-149.78;100.00;50487.09;5036279;28;20442;-67
2021/11/03 10:12:19;;;;;;;2.65;1.80;;;;;;;-149.78;100.00;50502.75;5029147;28;20037;-67
2021/11/03 10:14:45;;;;;;;2.42;1.42;;;;;;;-149.78;100.00;50526.22;5044645;28;20037;-67
2021/11/03 10:17:27;;;;;;;2.65;1.63;;;;;;;-149.78;100.00;50506.66;5037024;28;21078;-67
2021/11/03 10:19:54;;;;;;;3.20;1.60;;;;;;;-149.78;100.00;50475.34;5027268;28;20393;-67
2021/11/03 10:22:30;;;;;;;5.15;1.80;;;;;;;-149.78;100.00;50537.94;5027286;28;20084;-66
2021/11/03 10:25:24;;;;;;;2.95;1.70;;;;;;;-149.78;100.00;50508.59;5024328;28;20485;-66
2021/11/03 10:27:57;;;;;;;5.57;1.75;;;;;;;-149.78;100.00;50502.75;5023183;28;20022;-66
2021/11/03 10:30:28;;;;;;;3.00;1.80;;;;;;;-149.78;100.00;50463.63;5022446;28;20053;-66
2021/11/03 10:32:55;;;;;;;2.28;1.50;;;;;;;-149.78;100.00;50534.03;5033659;28;20112;-67
2021/11/03 10:35:55;;;;;;;2.80;1.40;;;;;;;-149.78;100.00;50459.72;5036514;28;20518;-66
2021/11/03 10:38:26;;;;;;;1.08;0.98;;;;;;;-149.78;100.00;50508.59;5039758;28;20040;-66
2021/11/03 10:41:05;;;;;;;2.95;1.30;;;;;;;-149.78;100.00;50473.41;5035659;28;20033;-66
2021/11/03 10:43:42;;;;;;;3.58;1.27;;;;;;;-149.78;100.00;50471.44;5022648;28;20038;-66
2021/11/03 10:46:21;;;;;;;3.08;1.30;;;;;;;-149.78;100.00;50489.03;5016965;28;20035;-66
2021/11/03 10:48:49;;;;;;;6.18;1.45;;;;;;;-149.78;100.00;50494.91;5038733;28;20032;-66
2021/11/03 10:51:23;;;;;;;2.05;1.10;;;;;;;-149.78;100.00;50492.97;5032464;28;20459;-66
2021/11/03 10:54:10;;;;;;;2.40;1.38;;;;;;;-149.78;100.00;50504.69;5033670;28;20056;-66
2021/11/03 10:56:58;;;;;;;1.73;1.10;;;;;;;-149.78;100.00;50500.78;5033971;28;20037;-66
2021/11/03 10:59:29;;;;;;;3.83;1.27;;;;;;;-149.78;100.00;50547.72;5026101;28;20026;-66
2021/11/03 11:01:57;;;;;;;3.70;1.40;;;;;;;-149.78;100.00;50471.44;5027521;28;20029;-67
2021/11/03 11:04:28;;;;;;;3.08;1.25;;;;;;;-149.78;100.00;50481.22;5022852;28;20034;-67
2021/11/03 11:07:02;;;;;;;2.15;0.93;;;;;;;-149.78;100.00;50502.75;5030348;28;20029;-66
2021/11/03 11:09:37;;;;;;;2.00;1.10;;;;;;;-149.78;100.00;50469.50;5033681;28;20033;-67
2021/11/03 11:12:25;;;;;;;3.33;1.23;;;;;;;-149.78;100.00;50545.75;5033969;28;20037;-66
2021/11/03 11:14:58;;;;;;;1.70;1.13;;;;;;;-149.78;100.00;50447.97;5023043;28;20040;-66